sensor_id;sensor_type;location;lat;lon;timestamp;temperature;humidity
19363;DHT22;9817;50.80926400;5.16316200;2022-08-01T00:01:52;22.90;99.90
19363;DHT22;9817;50.80926400;5.16316200;2022-08-01T00:04:18;22.80;99.90
19363;DHT22;9817;50.80926400;5.16316200;2022-08-01T00:06:44;22.70;99.90
19363;DHT22;9817;50.80926400;5.16316200;2022-08-01T00:09:09;22.80;99.90
19363;DHT22;9817;50.80926400;5.16316200;2022-08-01T00:11:35;22.80;99.90
19363;DHT22;9817;50.80926400;5.16316200;2022-08-01T00:14:01;22.80;99.90
19363;DHT22;9817;50.80926400;5.16316200;2022-08-01T00:16:27;22.80;99.90
19363;DHT22;9817;50.80926400;5.16316200;2022-08-01T00:18:52;22.80;99.90
19363;DHT22;9817;50.80926400;5.16316200;2022-08-01T00:21:18;22.90;99.90
19363;DHT22;9817;50.80926400;5.16316200;2022-08-01T00:23:44;22.90;99.90
19363;DHT22;9817;50.80926400;5.16316200;2022-08-01T00:26:12;22.90;99.90
19363;DHT22;9817;50.80926400;5.16316200;2022-08-01T00:28:38;22.80;99.90
19363;DHT22;9817;50.80926400;5.16316200;2022-08-01T00:31:03;22.70;99.90
19363;DHT22;9817;50.80926400;5.16316200;2022-08-01T00:33:29;22.80;99.90
19363;DHT22;9817;50.80926400;5.16316200;2022-08-01T00:35:55;22.70;99.90
19363;DHT22;9817;50.80926400;5.16316200;2022-08-01T00:38:21;22.70;99.90
19363;DHT22;9817;50.80926400;5.16316200;2022-08-01T00:40:47;22.60;99.90
19363;DHT22;9817;50.80926400;5.16316200;2022-08-01T00:43:13;22.60;99.90
19363;DHT22;9817;50.80926400;5.16316200;2022-08-01T00:45:39;22.60;99.90
19363;DHT22;9817;50.80926400;5.16316200;2022-08-01T00:48:05;22.70;99.90
19363;DHT22;9817;50.80926400;5.16316200;2022-08-01T00:50:30;22.60;99.90
19363;DHT22;9817;50.80926400;5.16316200;2022-08-01T00:52:58;22.70;99.90
19363;DHT22;9817;50.80926400;5.16316200;2022-08-01T00:55:25;22.70;99.90
19363;DHT22;9817;50.80926400;5.16316200;2022-08-01T00:57:51;22.80;99.90
19363;DHT22;9817;50.80926400;5.16316200;2022-08-01T01:00:17;22.80;99.90
19363;DHT22;9817;50.80926400;5.16316200;2022-08-01T01:02:43;22.80;99.90
19363;DHT22;9817;50.80926400;5.16316200;2022-08-01T01:05:09;22.80;99.90
19363;DHT22;9817;50.80926400;5.16316200;2022-08-01T01:07:45;22.80;99.90
19363;DHT22;9817;50.80926400;5.16316200;2022-08-01T01:10:36;22.80;99.90
19363;DHT22;9817;50.80926400;5.16316200;2022-08-01T01:13:20;22.70;99.90
19363;DHT22;9817;50.80926400;5.16316200;2022-08-01T01:15:59;22.60;99.90
19363;DHT22;9817;50.80926400;5.16316200;2022-08-01T01:18:34;22.50;99.90
19363;DHT22;9817;50.80926400;5.16316200;2022-08-01T01:29:30;22.50;99.90
19363;DHT22;9817;50.80926400;5.16316200;2022-08-01T01:32:22;22.50;99.90
19363;DHT22;9817;50.80926400;5.16316200;2022-08-01T01:34:49;22.40;99.90
19363;DHT22;9817;50.80926400;5.16316200;2022-08-01T01:37:21;22.50;99.90
19363;DHT22;9817;50.80926400;5.16316200;2022-08-01T01:39:50;22.40;99.90
19363;DHT22;9817;50.80926400;5.16316200;2022-08-01T01:42:17;22.50;99.90
19363;DHT22;9817;50.80926400;5.16316200;2022-08-01T01:44:45;22.40;99.90
19363;DHT22;9817;50.80926400;5.16316200;2022-08-01T01:47:13;22.40;99.90
19363;DHT22;9817;50.80926400;5.16316200;2022-08-01T01:49:40;22.30;99.90
19363;DHT22;9817;50.80926400;5.16316200;2022-08-01T01:52:07;22.20;99.90
19363;DHT22;9817;50.80926400;5.16316200;2022-08-01T01:54:36;22.10;99.90
19363;DHT22;9817;50.80926400;5.16316200;2022-08-01T01:57:03;22.10;99.90
19363;DHT22;9817;50.80926400;5.16316200;2022-08-01T01:59:32;22.00;99.90
19363;DHT22;9817;50.80926400;5.16316200;2022-08-01T02:02:02;22.00;99.90
19363;DHT22;9817;50.80926400;5.16316200;2022-08-01T02:04:28;22.00;99.90
19363;DHT22;9817;50.80926400;5.16316200;2022-08-01T02:06:56;22.00;99.90
19363;DHT22;9817;50.80926400;5.16316200;2022-08-01T02:09:23;22.20;99.90
19363;DHT22;9817;50.80926400;5.16316200;2022-08-01T02:11:50;22.10;99.90
19363;DHT22;9817;50.80926400;5.16316200;2022-08-01T02:14:18;22.10;99.90
19363;DHT22;9817;50.80926400;5.16316200;2022-08-01T02:16:48;22.10;99.90
19363;DHT22;9817;50.80926400;5.16316200;2022-08-01T02:19:14;22.00;99.90
19363;DHT22;9817;50.80926400;5.16316200;2022-08-01T02:21:56;22.10;99.90
19363;DHT22;9817;50.80926400;5.16316200;2022-08-01T02:24:34;22.10;99.90
19363;DHT22;9817;50.80926400;5.16316200;2022-08-01T02:27:02;22.20;99.90
19363;DHT22;9817;50.80926400;5.16316200;2022-08-01T02:29:36;22.10;99.90
19363;DHT22;9817;50.80926400;5.16316200;2022-08-01T02:32:04;22.10;99.90
19363;DHT22;9817;50.80926400;5.16316200;2022-08-01T02:34:31;22.30;99.90
19363;DHT22;9817;50.80926400;5.16316200;2022-08-01T02:37:00;22.20;99.90
19363;DHT22;9817;50.80926400;5.16316200;2022-08-01T02:39:28;22.20;99.90
19363;DHT22;9817;50.80926400;5.16316200;2022-08-01T02:41:58;22.30;99.90
19363;DHT22;9817;50.80926400;5.16316200;2022-08-01T02:44:28;22.30;99.90
19363;DHT22;9817;50.80926400;5.16316200;2022-08-01T02:47:01;22.30;99.90
19363;DHT22;9817;50.80926400;5.16316200;2022-08-01T02:49:50;22.30;99.90
19363;DHT22;9817;50.80926400;5.16316200;2022-08-01T02:52:18;22.30;99.90
19363;DHT22;9817;50.80926400;5.16316200;2022-08-01T02:54:48;22.20;99.90
19363;DHT22;9817;50.80926400;5.16316200;2022-08-01T02:57:16;22.30;99.90
19363;DHT22;9817;50.80926400;5.16316200;2022-08-01T02:59:42;22.30;99.90
19363;DHT22;9817;50.80926400;5.16316200;2022-08-01T03:02:10;22.30;99.90
19363;DHT22;9817;50.80926400;5.16316200;2022-08-01T03:04:39;22.30;99.90
19363;DHT22;9817;50.80926400;5.16316200;2022-08-01T03:07:08;22.30;99.90
19363;DHT22;9817;50.80926400;5.16316200;2022-08-01T03:09:37;22.30;99.90
19363;DHT22;9817;50.80926400;5.16316200;2022-08-01T03:12:07;22.30;99.90
19363;DHT22;9817;50.80926400;5.16316200;2022-08-01T03:14:36;22.30;99.90
19363;DHT22;9817;50.80926400;5.16316200;2022-08-01T03:17:04;22.30;99.90
19363;DHT22;9817;50.80926400;5.16316200;2022-08-01T03:19:31;22.30;99.90
19363;DHT22;9817;50.80926400;5.16316200;2022-08-01T03:21:59;22.20;99.90
19363;DHT22;9817;50.80926400;5.16316200;2022-08-01T03:24:29;22.20;99.90
19363;DHT22;9817;50.80926400;5.16316200;2022-08-01T03:26:57;22.30;99.90
19363;DHT22;9817;50.80926400;5.16316200;2022-08-01T03:29:26;22.20;99.90
19363;DHT22;9817;50.80926400;5.16316200;2022-08-01T03:31:52;22.30;99.90
19363;DHT22;9817;50.80926400;5.16316200;2022-08-01T03:34:18;22.20;99.90
19363;DHT22;9817;50.80926400;5.16316200;2022-08-01T03:36:53;22.30;99.90
19363;DHT22;9817;50.80926400;5.16316200;2022-08-01T03:39:23;22.30;99.90
19363;DHT22;9817;50.80926400;5.16316200;2022-08-01T03:41:57;22.20;99.90
19363;DHT22;9817;50.80926400;5.16316200;2022-08-01T03:44:27;22.30;99.90
19363;DHT22;9817;50.80926400;5.16316200;2022-08-01T03:47:05;22.30;99.90
19363;DHT22;9817;50.80926400;5.16316200;2022-08-01T03:49:35;22.40;99.90
19363;DHT22;9817;50.80926400;5.16316200;2022-08-01T03:52:02;22.30;99.90
19363;DHT22;9817;50.80926400;5.16316200;2022-08-01T03:54:31;22.20;99.90
19363;DHT22;9817;50.80926400;5.16316200;2022-08-01T03:57:00;22.20;99.90
19363;DHT22;9817;50.80926400;5.16316200;2022-08-01T03:59:27;22.30;99.90
19363;DHT22;9817;50.80926400;5.16316200;2022-08-01T04:01:53;22.30;99.90
19363;DHT22;9817;50.80926400;5.16316200;2022-08-01T04:04:20;22.40;99.90
19363;DHT22;9817;50.80926400;5.16316200;2022-08-01T04:06:45;22.30;99.90
19363;DHT22;9817;50.80926400;5.16316200;2022-08-01T04:09:11;22.30;99.90
19363;DHT22;9817;50.80926400;5.16316200;2022-08-01T04:11:37;22.30;99.90
19363;DHT22;9817;50.80926400;5.16316200;2022-08-01T04:14:03;22.30;99.90
19363;DHT22;9817;50.80926400;5.16316200;2022-08-01T04:16:29;22.40;99.90
19363;DHT22;9817;50.80926400;5.16316200;2022-08-01T04:18:55;22.40;99.90
19363;DHT22;9817;50.80926400;5.16316200;2022-08-01T04:21:23;22.50;99.90
19363;DHT22;9817;50.80926400;5.16316200;2022-08-01T04:23:51;22.40;99.90
19363;DHT22;9817;50.80926400;5.16316200;2022-08-01T04:26:20;22.40;99.90
19363;DHT22;9817;50.80926400;5.16316200;2022-08-01T04:28:48;22.40;99.90
19363;DHT22;9817;50.80926400;5.16316200;2022-08-01T04:31:16;22.40;99.90
19363;DHT22;9817;50.80926400;5.16316200;2022-08-01T04:33:47;22.30;99.90
19363;DHT22;9817;50.80926400;5.16316200;2022-08-01T04:36:15;22.30;99.90
19363;DHT22;9817;50.80926400;5.16316200;2022-08-01T04:38:45;22.30;99.90
19363;DHT22;9817;50.80926400;5.16316200;2022-08-01T04:41:13;22.30;99.90
19363;DHT22;9817;50.80926400;5.16316200;2022-08-01T04:43:39;22.40;99.90
19363;DHT22;9817;50.80926400;5.16316200;2022-08-01T04:46:06;22.40;99.90
19363;DHT22;9817;50.80926400;5.16316200;2022-08-01T04:48:33;22.50;99.90
19363;DHT22;9817;50.80926400;5.16316200;2022-08-01T04:51:00;22.50;99.90
19363;DHT22;9817;50.80926400;5.16316200;2022-08-01T04:53:26;22.50;99.90
19363;DHT22;9817;50.80926400;5.16316200;2022-08-01T04:55:52;22.40;99.90
19363;DHT22;9817;50.80926400;5.16316200;2022-08-01T04:58:18;22.20;99.90
19363;DHT22;9817;50.80926400;5.16316200;2022-08-01T05:00:43;22.20;99.90
19363;DHT22;9817;50.80926400;5.16316200;2022-08-01T05:03:09;22.20;99.90
19363;DHT22;9817;50.80926400;5.16316200;2022-08-01T05:05:35;22.20;99.90
19363;DHT22;9817;50.80926400;5.16316200;2022-08-01T05:08:00;22.20;99.90
19363;DHT22;9817;50.80926400;5.16316200;2022-08-01T05:10:27;22.20;99.90
19363;DHT22;9817;50.80926400;5.16316200;2022-08-01T05:12:53;22.20;99.90
19363;DHT22;9817;50.80926400;5.16316200;2022-08-01T05:15:18;22.30;99.90
19363;DHT22;9817;50.80926400;5.16316200;2022-08-01T05:17:44;22.20;99.90
19363;DHT22;9817;50.80926400;5.16316200;2022-08-01T05:20:11;22.30;99.90
19363;DHT22;9817;50.80926400;5.16316200;2022-08-01T05:22:37;22.20;99.90
19363;DHT22;9817;50.80926400;5.16316200;2022-08-01T05:25:04;22.10;99.90
19363;DHT22;9817;50.80926400;5.16316200;2022-08-01T05:27:30;22.10;99.90
19363;DHT22;9817;50.80926400;5.16316200;2022-08-01T05:29:56;22.10;99.90
19363;DHT22;9817;50.80926400;5.16316200;2022-08-01T05:32:22;22.10;99.90
19363;DHT22;9817;50.80926400;5.16316200;2022-08-01T05:34:47;22.10;99.90
19363;DHT22;9817;50.80926400;5.16316200;2022-08-01T05:37:13;22.00;99.90
19363;DHT22;9817;50.80926400;5.16316200;2022-08-01T05:39:39;22.00;99.90
19363;DHT22;9817;50.80926400;5.16316200;2022-08-01T05:42:04;22.10;99.90
19363;DHT22;9817;50.80926400;5.16316200;2022-08-01T05:44:30;22.10;99.90
19363;DHT22;9817;50.80926400;5.16316200;2022-08-01T05:46:56;22.00;99.90
19363;DHT22;9817;50.80926400;5.16316200;2022-08-01T05:49:21;21.90;99.90
19363;DHT22;9817;50.80926400;5.16316200;2022-08-01T05:51:47;21.90;99.90
19363;DHT22;9817;50.80926400;5.16316200;2022-08-01T05:54:13;21.90;99.90
19363;DHT22;9817;50.80926400;5.16316200;2022-08-01T05:56:38;21.90;99.90
19363;DHT22;9817;50.80926400;5.16316200;2022-08-01T05:59:04;21.80;99.90
19363;DHT22;9817;50.80926400;5.16316200;2022-08-01T06:01:30;21.90;99.90
19363;DHT22;9817;50.80926400;5.16316200;2022-08-01T06:03:55;21.90;99.90
19363;DHT22;9817;50.80926400;5.16316200;2022-08-01T06:06:22;22.00;99.90
19363;DHT22;9817;50.80926400;5.16316200;2022-08-01T06:08:48;22.10;99.90
19363;DHT22;9817;50.80926400;5.16316200;2022-08-01T06:11:13;22.10;99.90
19363;DHT22;9817;50.80926400;5.16316200;2022-08-01T06:13:39;22.10;99.90
19363;DHT22;9817;50.80926400;5.16316200;2022-08-01T06:16:04;22.10;99.90
19363;DHT22;9817;50.80926400;5.16316200;2022-08-01T06:18:30;22.00;99.90
19363;DHT22;9817;50.80926400;5.16316200;2022-08-01T06:20:56;22.10;99.90
19363;DHT22;9817;50.80926400;5.16316200;2022-08-01T06:23:22;22.20;99.90
19363;DHT22;9817;50.80926400;5.16316200;2022-08-01T06:25:48;22.30;99.90
19363;DHT22;9817;50.80926400;5.16316200;2022-08-01T06:28:14;22.20;99.90
19363;DHT22;9817;50.80926400;5.16316200;2022-08-01T06:30:39;22.20;99.90
19363;DHT22;9817;50.80926400;5.16316200;2022-08-01T06:33:05;22.00;99.90
19363;DHT22;9817;50.80926400;5.16316200;2022-08-01T06:35:30;21.80;99.90
19363;DHT22;9817;50.80926400;5.16316200;2022-08-01T06:37:57;21.80;99.90
19363;DHT22;9817;50.80926400;5.16316200;2022-08-01T06:40:23;21.70;99.90
19363;DHT22;9817;50.80926400;5.16316200;2022-08-01T06:42:48;21.60;99.90
19363;DHT22;9817;50.80926400;5.16316200;2022-08-01T06:45:15;21.60;99.90
19363;DHT22;9817;50.80926400;5.16316200;2022-08-01T06:47:43;21.60;99.90
19363;DHT22;9817;50.80926400;5.16316200;2022-08-01T06:50:10;21.80;99.90
19363;DHT22;9817;50.80926400;5.16316200;2022-08-01T06:52:36;21.90;99.90
19363;DHT22;9817;50.80926400;5.16316200;2022-08-01T06:55:02;21.90;99.90
19363;DHT22;9817;50.80926400;5.16316200;2022-08-01T06:57:28;22.00;99.90
19363;DHT22;9817;50.80926400;5.16316200;2022-08-01T06:59:54;22.10;99.90
19363;DHT22;9817;50.80926400;5.16316200;2022-08-01T07:02:19;22.10;99.90
19363;DHT22;9817;50.80926400;5.16316200;2022-08-01T07:04:45;22.10;99.90
19363;DHT22;9817;50.80926400;5.16316200;2022-08-01T07:07:11;22.20;99.90
19363;DHT22;9817;50.80926400;5.16316200;2022-08-01T07:09:36;22.20;99.90
19363;DHT22;9817;50.80926400;5.16316200;2022-08-01T07:12:03;22.10;99.90
19363;DHT22;9817;50.80926400;5.16316200;2022-08-01T07:14:29;22.20;99.90
19363;DHT22;9817;50.80926400;5.16316200;2022-08-01T07:16:55;22.30;99.90
19363;DHT22;9817;50.80926400;5.16316200;2022-08-01T07:19:20;22.30;99.90
19363;DHT22;9817;50.80926400;5.16316200;2022-08-01T07:21:46;22.50;99.90
19363;DHT22;9817;50.80926400;5.16316200;2022-08-01T07:24:13;22.50;99.90
19363;DHT22;9817;50.80926400;5.16316200;2022-08-01T07:26:43;22.60;99.90
19363;DHT22;9817;50.80926400;5.16316200;2022-08-01T07:29:09;22.70;99.90
19363;DHT22;9817;50.80926400;5.16316200;2022-08-01T07:31:35;22.90;99.90
19363;DHT22;9817;50.80926400;5.16316200;2022-08-01T07:34:00;23.30;99.90
19363;DHT22;9817;50.80926400;5.16316200;2022-08-01T07:36:26;23.50;99.90
19363;DHT22;9817;50.80926400;5.16316200;2022-08-01T07:38:52;23.80;99.90
19363;DHT22;9817;50.80926400;5.16316200;2022-08-01T07:41:18;24.10;99.90
19363;DHT22;9817;50.80926400;5.16316200;2022-08-01T07:43:43;24.20;99.90
19363;DHT22;9817;50.80926400;5.16316200;2022-08-01T07:46:09;24.50;99.90
19363;DHT22;9817;50.80926400;5.16316200;2022-08-01T07:48:35;24.80;99.90
19363;DHT22;9817;50.80926400;5.16316200;2022-08-01T07:51:00;25.10;99.90
19363;DHT22;9817;50.80926400;5.16316200;2022-08-01T07:53:26;25.40;99.90
19363;DHT22;9817;50.80926400;5.16316200;2022-08-01T07:55:51;25.60;99.90
19363;DHT22;9817;50.80926400;5.16316200;2022-08-01T07:58:17;25.90;99.90
19363;DHT22;9817;50.80926400;5.16316200;2022-08-01T08:00:43;25.90;99.90
19363;DHT22;9817;50.80926400;5.16316200;2022-08-01T08:03:09;25.90;99.90
19363;DHT22;9817;50.80926400;5.16316200;2022-08-01T08:05:35;25.90;99.90
19363;DHT22;9817;50.80926400;5.16316200;2022-08-01T08:08:02;25.80;99.90
19363;DHT22;9817;50.80926400;5.16316200;2022-08-01T08:10:29;25.70;99.90
19363;DHT22;9817;50.80926400;5.16316200;2022-08-01T08:12:55;25.60;99.90
19363;DHT22;9817;50.80926400;5.16316200;2022-08-01T08:15:20;25.50;99.90
19363;DHT22;9817;50.80926400;5.16316200;2022-08-01T08:17:46;25.30;99.90
19363;DHT22;9817;50.80926400;5.16316200;2022-08-01T08:20:12;25.20;99.90
19363;DHT22;9817;50.80926400;5.16316200;2022-08-01T08:22:37;25.00;99.90
19363;DHT22;9817;50.80926400;5.16316200;2022-08-01T08:25:03;24.90;99.90
19363;DHT22;9817;50.80926400;5.16316200;2022-08-01T08:27:30;24.80;99.90
19363;DHT22;9817;50.80926400;5.16316200;2022-08-01T08:29:56;25.00;99.90
19363;DHT22;9817;50.80926400;5.16316200;2022-08-01T08:32:21;25.30;99.90
19363;DHT22;9817;50.80926400;5.16316200;2022-08-01T08:34:47;26.00;99.90
19363;DHT22;9817;50.80926400;5.16316200;2022-08-01T08:37:13;27.40;99.90
19363;DHT22;9817;50.80926400;5.16316200;2022-08-01T08:39:38;29.90;99.90
19363;DHT22;9817;50.80926400;5.16316200;2022-08-01T08:42:08;32.70;99.90
19363;DHT22;9817;50.80926400;5.16316200;2022-08-01T08:44:34;34.60;99.90
19363;DHT22;9817;50.80926400;5.16316200;2022-08-01T08:47:02;35.50;98.00
19363;DHT22;9817;50.80926400;5.16316200;2022-08-01T08:49:31;36.30;96.10
19363;DHT22;9817;50.80926400;5.16316200;2022-08-01T08:51:59;37.30;93.80
19363;DHT22;9817;50.80926400;5.16316200;2022-08-01T08:54:25;38.90;90.80
19363;DHT22;9817;50.80926400;5.16316200;2022-08-01T08:56:53;39.80;85.20
19363;DHT22;9817;50.80926400;5.16316200;2022-08-01T08:59:19;39.20;82.80
19363;DHT22;9817;50.80926400;5.16316200;2022-08-01T09:01:46;38.30;83.30
19363;DHT22;9817;50.80926400;5.16316200;2022-08-01T09:04:12;37.00;84.40
19363;DHT22;9817;50.80926400;5.16316200;2022-08-01T09:06:39;36.50;87.10
19363;DHT22;9817;50.80926400;5.16316200;2022-08-01T09:09:05;36.20;87.90
19363;DHT22;9817;50.80926400;5.16316200;2022-08-01T09:11:31;35.90;88.30
19363;DHT22;9817;50.80926400;5.16316200;2022-08-01T09:14:15;35.40;88.40
19363;DHT22;9817;50.80926400;5.16316200;2022-08-01T09:16:58;34.80;90.40
19363;DHT22;9817;50.80926400;5.16316200;2022-08-01T09:19:23;33.80;91.30
19363;DHT22;9817;50.80926400;5.16316200;2022-08-01T09:22:00;33.20;93.70
19363;DHT22;9817;50.80926400;5.16316200;2022-08-01T09:24:27;33.30;92.60
19363;DHT22;9817;50.80926400;5.16316200;2022-08-01T09:26:53;33.30;92.10
19363;DHT22;9817;50.80926400;5.16316200;2022-08-01T09:29:22;33.20;93.00
19363;DHT22;9817;50.80926400;5.16316200;2022-08-01T09:31:48;33.40;94.00
19363;DHT22;9817;50.80926400;5.16316200;2022-08-01T09:34:16;33.40;93.20
19363;DHT22;9817;50.80926400;5.16316200;2022-08-01T09:36:51;33.00;94.30
19363;DHT22;9817;50.80926400;5.16316200;2022-08-01T09:39:24;32.40;94.90
19363;DHT22;9817;50.80926400;5.16316200;2022-08-01T09:41:51;31.60;96.00
19363;DHT22;9817;50.80926400;5.16316200;2022-08-01T09:44:17;30.90;98.00
19363;DHT22;9817;50.80926400;5.16316200;2022-08-01T09:46:54;30.30;99.90
19363;DHT22;9817;50.80926400;5.16316200;2022-08-01T09:49:28;29.90;99.90
19363;DHT22;9817;50.80926400;5.16316200;2022-08-01T09:51:55;29.60;99.90
19363;DHT22;9817;50.80926400;5.16316200;2022-08-01T09:54:31;29.60;99.90
19363;DHT22;9817;50.80926400;5.16316200;2022-08-01T09:57:18;29.70;99.90
19363;DHT22;9817;50.80926400;5.16316200;2022-08-01T09:59:47;29.70;99.90
19363;DHT22;9817;50.80926400;5.16316200;2022-08-01T10:02:25;29.10;99.90
19363;DHT22;9817;50.80926400;5.16316200;2022-08-01T10:04:52;29.20;99.90
19363;DHT22;9817;50.80926400;5.16316200;2022-08-01T10:07:18;29.40;99.90
19363;DHT22;9817;50.80926400;5.16316200;2022-08-01T10:09:45;29.20;99.90
19363;DHT22;9817;50.80926400;5.16316200;2022-08-01T10:12:13;29.20;99.90
19363;DHT22;9817;50.80926400;5.16316200;2022-08-01T10:14:40;29.30;99.90
19363;DHT22;9817;50.80926400;5.16316200;2022-08-01T10:17:09;29.30;99.90
19363;DHT22;9817;50.80926400;5.16316200;2022-08-01T10:19:37;29.60;99.90
19363;DHT22;9817;50.80926400;5.16316200;2022-08-01T10:22:08;29.50;99.90
19363;DHT22;9817;50.80926400;5.16316200;2022-08-01T10:24:37;30.10;99.90
19363;DHT22;9817;50.80926400;5.16316200;2022-08-01T10:27:08;30.60;99.90
19363;DHT22;9817;50.80926400;5.16316200;2022-08-01T10:29:42;31.10;99.50
19363;DHT22;9817;50.80926400;5.16316200;2022-08-01T10:32:09;31.10;97.60
19363;DHT22;9817;50.80926400;5.16316200;2022-08-01T10:34:36;31.40;96.40
19363;DHT22;9817;50.80926400;5.16316200;2022-08-01T10:37:04;31.30;94.80
19363;DHT22;9817;50.80926400;5.16316200;2022-08-01T10:39:31;31.00;94.90
19363;DHT22;9817;50.80926400;5.16316200;2022-08-01T10:41:56;30.90;95.70
19363;DHT22;9817;50.80926400;5.16316200;2022-08-01T10:44:25;31.10;96.70
19363;DHT22;9817;50.80926400;5.16316200;2022-08-01T10:46:59;31.50;96.10
19363;DHT22;9817;50.80926400;5.16316200;2022-08-01T10:49:29;31.50;94.70
19363;DHT22;9817;50.80926400;5.16316200;2022-08-01T10:51:57;31.20;96.50
19363;DHT22;9817;50.80926400;5.16316200;2022-08-01T10:54:26;31.20;95.50
19363;DHT22;9817;50.80926400;5.16316200;2022-08-01T10:56:52;31.30;93.70
19363;DHT22;9817;50.80926400;5.16316200;2022-08-01T10:59:26;31.30;93.80
19363;DHT22;9817;50.80926400;5.16316200;2022-08-01T11:02:00;31.20;93.70
19363;DHT22;9817;50.80926400;5.16316200;2022-08-01T11:07:07;30.70;95.20
19363;DHT22;9817;50.80926400;5.16316200;2022-08-01T11:12:16;30.70;93.80
19363;DHT22;9817;50.80926400;5.16316200;2022-08-01T11:17:43;30.80;94.20
19363;DHT22;9817;50.80926400;5.16316200;2022-08-01T11:33:07;29.20;97.80
19363;DHT22;9817;50.80926400;5.16316200;2022-08-01T11:35:35;29.10;98.30
19363;DHT22;9817;50.80926400;5.16316200;2022-08-01T11:38:25;29.20;98.40
19363;DHT22;9817;50.80926400;5.16316200;2022-08-01T11:41:17;29.20;97.80
19363;DHT22;9817;50.80926400;5.16316200;2022-08-01T11:43:59;29.40;98.80
19363;DHT22;9817;50.80926400;5.16316200;2022-08-01T11:51:58;30.00;95.90
19363;DHT22;9817;50.80926400;5.16316200;2022-08-01T11:54:33;30.10;96.60
19363;DHT22;9817;50.80926400;5.16316200;2022-08-01T11:57:00;30.00;95.70
19363;DHT22;9817;50.80926400;5.16316200;2022-08-01T11:59:28;29.90;96.80
19363;DHT22;9817;50.80926400;5.16316200;2022-08-01T12:01:54;29.70;96.20
19363;DHT22;9817;50.80926400;5.16316200;2022-08-01T12:04:20;29.60;96.80
19363;DHT22;9817;50.80926400;5.16316200;2022-08-01T12:06:46;29.80;97.10
19363;DHT22;9817;50.80926400;5.16316200;2022-08-01T12:09:29;30.00;96.20
19363;DHT22;9817;50.80926400;5.16316200;2022-08-01T12:11:55;30.50;96.00
19363;DHT22;9817;50.80926400;5.16316200;2022-08-01T12:14:23;30.80;93.70
19363;DHT22;9817;50.80926400;5.16316200;2022-08-01T12:16:51;31.10;94.30
19363;DHT22;9817;50.80926400;5.16316200;2022-08-01T12:19:22;31.40;93.80
19363;DHT22;9817;50.80926400;5.16316200;2022-08-01T12:22:11;31.20;91.60
19363;DHT22;9817;50.80926400;5.16316200;2022-08-01T12:24:39;30.90;91.20
19363;DHT22;9817;50.80926400;5.16316200;2022-08-01T12:27:06;30.90;92.20
19363;DHT22;9817;50.80926400;5.16316200;2022-08-01T12:29:34;30.90;91.60
19363;DHT22;9817;50.80926400;5.16316200;2022-08-01T12:32:00;31.10;91.70
19363;DHT22;9817;50.80926400;5.16316200;2022-08-01T12:34:29;31.40;91.80
19363;DHT22;9817;50.80926400;5.16316200;2022-08-01T12:36:56;31.30;91.90
19363;DHT22;9817;50.80926400;5.16316200;2022-08-01T12:39:29;31.10;90.80
19363;DHT22;9817;50.80926400;5.16316200;2022-08-01T12:41:55;31.20;92.40
19363;DHT22;9817;50.80926400;5.16316200;2022-08-01T12:44:21;31.30;92.50
19363;DHT22;9817;50.80926400;5.16316200;2022-08-01T12:46:47;31.30;92.70
19363;DHT22;9817;50.80926400;5.16316200;2022-08-01T12:49:13;31.30;91.50
19363;DHT22;9817;50.80926400;5.16316200;2022-08-01T12:51:38;31.00;91.50
19363;DHT22;9817;50.80926400;5.16316200;2022-08-01T12:54:04;31.10;90.80
19363;DHT22;9817;50.80926400;5.16316200;2022-08-01T12:56:33;30.90;90.20
19363;DHT22;9817;50.80926400;5.16316200;2022-08-01T12:58:59;30.90;90.70
19363;DHT22;9817;50.80926400;5.16316200;2022-08-01T13:01:26;30.90;91.70
19363;DHT22;9817;50.80926400;5.16316200;2022-08-01T13:04:02;31.10;92.00
19363;DHT22;9817;50.80926400;5.16316200;2022-08-01T13:06:31;31.20;91.40
19363;DHT22;9817;50.80926400;5.16316200;2022-08-01T13:09:08;31.20;90.10
19363;DHT22;9817;50.80926400;5.16316200;2022-08-01T13:11:35;31.20;90.20
19363;DHT22;9817;50.80926400;5.16316200;2022-08-01T13:14:01;30.60;88.90
19363;DHT22;9817;50.80926400;5.16316200;2022-08-01T13:16:27;30.20;90.10
19363;DHT22;9817;50.80926400;5.16316200;2022-08-01T13:18:54;29.80;91.60
19363;DHT22;9817;50.80926400;5.16316200;2022-08-01T13:24:07;30.30;91.10
19363;DHT22;9817;50.80926400;5.16316200;2022-08-01T13:26:47;30.30;91.70
19363;DHT22;9817;50.80926400;5.16316200;2022-08-01T13:29:35;30.40;91.40
19363;DHT22;9817;50.80926400;5.16316200;2022-08-01T13:32:20;30.40;91.40
19363;DHT22;9817;50.80926400;5.16316200;2022-08-01T13:34:46;30.10;90.90
19363;DHT22;9817;50.80926400;5.16316200;2022-08-01T13:37:12;30.40;90.80
19363;DHT22;9817;50.80926400;5.16316200;2022-08-01T13:39:37;30.80;91.20
19363;DHT22;9817;50.80926400;5.16316200;2022-08-01T13:42:07;30.80;90.60
19363;DHT22;9817;50.80926400;5.16316200;2022-08-01T13:44:33;30.60;91.30
19363;DHT22;9817;50.80926400;5.16316200;2022-08-01T13:46:58;30.40;90.70
19363;DHT22;9817;50.80926400;5.16316200;2022-08-01T13:49:24;30.10;90.80
19363;DHT22;9817;50.80926400;5.16316200;2022-08-01T13:51:50;30.00;92.20
19363;DHT22;9817;50.80926400;5.16316200;2022-08-01T13:54:16;30.00;91.00
19363;DHT22;9817;50.80926400;5.16316200;2022-08-01T13:56:42;30.30;90.30
19363;DHT22;9817;50.80926400;5.16316200;2022-08-01T13:59:08;30.00;91.00
19363;DHT22;9817;50.80926400;5.16316200;2022-08-01T14:01:34;29.60;91.10
19363;DHT22;9817;50.80926400;5.16316200;2022-08-01T14:04:01;29.50;93.20
19363;DHT22;9817;50.80926400;5.16316200;2022-08-01T14:06:26;29.50;92.20
19363;DHT22;9817;50.80926400;5.16316200;2022-08-01T14:08:52;29.60;91.30
19363;DHT22;9817;50.80926400;5.16316200;2022-08-01T14:11:18;29.80;90.90
19363;DHT22;9817;50.80926400;5.16316200;2022-08-01T14:13:44;29.90;90.30
19363;DHT22;9817;50.80926400;5.16316200;2022-08-01T14:16:09;29.90;91.50
19363;DHT22;9817;50.80926400;5.16316200;2022-08-01T14:18:35;29.90;88.20